sensor_id;sensor_type;location;lat;lon;timestamp;P1;durP1;ratioP1;P2;durP2;ratioP2
54539;SDS011;40438;52.992;18.604;2023-07-02T00:01:24;13.63;;;6.78;;
54539;SDS011;40438;52.992;18.604;2023-07-02T00:03:51;8.82;;;6.55;;
54539;SDS011;40438;52.992;18.604;2023-07-02T00:06:17;11.85;;;7.53;;
54539;SDS011;40438;52.992;18.604;2023-07-02T00:08:43;10.25;;;6.65;;
54539;SDS011;40438;52.992;18.604;2023-07-02T00:11:09;9.77;;;6.82;;
54539;SDS011;40438;52.992;18.604;2023-07-02T00:13:34;9.63;;;6.97;;
54539;SDS011;40438;52.992;18.604;2023-07-02T00:16:00;10.98;;;6.75;;
54539;SDS011;40438;52.992;18.604;2023-07-02T00:18:26;11.75;;;6.88;;
54539;SDS011;40438;52.992;18.604;2023-07-02T00:20:53;12.18;;;7.22;;
54539;SDS011;40438;52.992;18.604;2023-07-02T00:23:19;9.55;;;6.68;;
54539;SDS011;40438;52.992;18.604;2023-07-02T00:25:45;10.88;;;6.90;;
54539;SDS011;40438;52.992;18.604;2023-07-02T00:28:10;10.60;;;7.03;;
54539;SDS011;40438;52.992;18.604;2023-07-02T00:30:36;13.77;;;7.07;;
54539;SDS011;40438;52.992;18.604;2023-07-02T00:33:02;9.75;;;6.68;;
54539;SDS011;40438;52.992;18.604;2023-07-02T00:35:28;11.70;;;6.85;;
54539;SDS011;40438;52.992;18.604;2023-07-02T00:37:55;10.80;;;7.18;;
54539;SDS011;40438;52.992;18.604;2023-07-02T00:40:21;9.75;;;6.50;;
54539;SDS011;40438;52.992;18.604;2023-07-02T00:42:47;12.68;;;6.80;;
54539;SDS011;40438;52.992;18.604;2023-07-02T00:45:12;11.27;;;6.93;;
54539;SDS011;40438;52.992;18.604;2023-07-02T00:47:38;11.98;;;7.00;;
54539;SDS011;40438;52.992;18.604;2023-07-02T00:50:04;12.52;;;7.25;;
54539;SDS011;40438;52.992;18.604;2023-07-02T00:52:30;11.45;;;7.60;;
54539;SDS011;40438;52.992;18.604;2023-07-02T00:54:58;10.65;;;7.50;;
54539;SDS011;40438;52.992;18.604;2023-07-02T00:57:23;10.07;;;7.65;;
54539;SDS011;40438;52.992;18.604;2023-07-02T00:59:49;10.60;;;7.07;;
54539;SDS011;40438;52.992;18.604;2023-07-02T01:02:15;11.43;;;7.63;;
54539;SDS011;40438;52.992;18.604;2023-07-02T01:04:41;9.13;;;7.25;;
54539;SDS011;40438;52.992;18.604;2023-07-02T01:07:07;11.75;;;7.95;;
54539;SDS011;40438;52.992;18.604;2023-07-02T01:09:32;11.18;;;7.15;;
54539;SDS011;40438;52.992;18.604;2023-07-02T01:12:00;9.45;;;6.63;;
54539;SDS011;40438;52.992;18.604;2023-07-02T01:14:30;10.07;;;6.93;;
54539;SDS011;40438;52.992;18.604;2023-07-02T01:16:58;12.68;;;7.55;;
54539;SDS011;40438;52.992;18.604;2023-07-02T01:19:38;10.43;;;7.20;;
54539;SDS011;40438;52.992;18.604;2023-07-02T01:22:08;10.20;;;7.07;;
54539;SDS011;40438;52.992;18.604;2023-07-02T01:24:34;9.82;;;7.32;;
54539;SDS011;40438;52.992;18.604;2023-07-02T01:27:01;10.48;;;7.25;;
54539;SDS011;40438;52.992;18.604;2023-07-02T01:29:28;10.95;;;7.38;;
54539;SDS011;40438;52.992;18.604;2023-07-02T01:31:55;9.82;;;7.25;;
54539;SDS011;40438;52.992;18.604;2023-07-02T01:34:22;11.10;;;7.13;;
54539;SDS011;40438;52.992;18.604;2023-07-02T01:36:49;12.18;;;7.05;;
54539;SDS011;40438;52.992;18.604;2023-07-02T01:39:16;13.00;;;7.88;;
54539;SDS011;40438;52.992;18.604;2023-07-02T01:41:42;13.18;;;7.32;;
54539;SDS011;40438;52.992;18.604;2023-07-02T01:44:10;10.23;;;7.38;;
54539;SDS011;40438;52.992;18.604;2023-07-02T01:46:37;11.25;;;7.63;;
54539;SDS011;40438;52.992;18.604;2023-07-02T01:49:02;12.20;;;7.63;;
54539;SDS011;40438;52.992;18.604;2023-07-02T01:51:29;11.23;;;7.47;;
54539;SDS011;40438;52.992;18.604;2023-07-02T01:53:56;9.80;;;6.78;;
54539;SDS011;40438;52.992;18.604;2023-07-02T01:56:22;11.95;;;7.45;;
54539;SDS011;40438;52.992;18.604;2023-07-02T01:58:47;10.40;;;6.57;;
54539;SDS011;40438;52.992;18.604;2023-07-02T02:01:13;11.07;;;7.38;;
54539;SDS011;40438;52.992;18.604;2023-07-02T02:03:39;12.88;;;7.55;;
54539;SDS011;40438;52.992;18.604;2023-07-02T02:06:05;11.02;;;6.85;;
54539;SDS011;40438;52.992;18.604;2023-07-02T02:08:31;11.05;;;7.72;;
54539;SDS011;40438;52.992;18.604;2023-07-02T02:10:58;9.07;;;6.88;;
54539;SDS011;40438;52.992;18.604;2023-07-02T02:13:24;18.35;;;8.00;;
54539;SDS011;40438;52.992;18.604;2023-07-02T02:15:49;11.82;;;6.72;;
54539;SDS011;40438;52.992;18.604;2023-07-02T02:18:15;9.43;;;6.70;;
54539;SDS011;40438;52.992;18.604;2023-07-02T02:20:41;10.27;;;6.60;;
54539;SDS011;40438;52.992;18.604;2023-07-02T02:23:08;9.38;;;6.57;;
54539;SDS011;40438;52.992;18.604;2023-07-02T02:25:34;10.00;;;6.85;;
54539;SDS011;40438;52.992;18.604;2023-07-02T02:28:03;10.18;;;6.53;;
54539;SDS011;40438;52.992;18.604;2023-07-02T02:30:29;11.15;;;7.10;;
54539;SDS011;40438;52.992;18.604;2023-07-02T02:32:55;11.40;;;6.95;;
54539;SDS011;40438;52.992;18.604;2023-07-02T02:35:21;11.65;;;6.80;;
54539;SDS011;40438;52.992;18.604;2023-07-02T02:37:48;11.77;;;7.03;;
54539;SDS011;40438;52.992;18.604;2023-07-02T02:40:15;8.57;;;6.57;;
54539;SDS011;40438;52.992;18.604;2023-07-02T02:42:41;11.13;;;6.18;;
54539;SDS011;40438;52.992;18.604;2023-07-02T02:45:08;8.02;;;5.85;;
54539;SDS011;40438;52.992;18.604;2023-07-02T02:47:34;9.57;;;5.78;;
54539;SDS011;40438;52.992;18.604;2023-07-02T02:50:01;9.30;;;6.00;;
54539;SDS011;40438;52.992;18.604;2023-07-02T02:52:26;11.25;;;6.10;;
54539;SDS011;40438;52.992;18.604;2023-07-02T02:54:52;8.30;;;5.60;;
54539;SDS011;40438;52.992;18.604;2023-07-02T02:57:18;8.52;;;5.55;;
54539;SDS011;40438;52.992;18.604;2023-07-02T02:59:44;11.35;;;5.38;;
54539;SDS011;40438;52.992;18.604;2023-07-02T03:02:11;8.07;;;5.22;;
54539;SDS011;40438;52.992;18.604;2023-07-02T03:04:37;7.15;;;5.00;;
54539;SDS011;40438;52.992;18.604;2023-07-02T03:07:03;7.43;;;5.10;;
54539;SDS011;40438;52.992;18.604;2023-07-02T03:09:28;7.25;;;4.63;;
54539;SDS011;40438;52.992;18.604;2023-07-02T03:11:54;5.43;;;4.15;;
54539;SDS011;40438;52.992;18.604;2023-07-02T03:14:20;5.35;;;4.45;;
54539;SDS011;40438;52.992;18.604;2023-07-02T03:16:46;5.47;;;3.50;;
54539;SDS011;40438;52.992;18.604;2023-07-02T03:19:13;5.40;;;3.85;;
54539;SDS011;40438;52.992;18.604;2023-07-02T03:21:39;8.52;;;3.83;;
54539;SDS011;40438;52.992;18.604;2023-07-02T03:24:05;4.60;;;3.50;;
54539;SDS011;40438;52.992;18.604;2023-07-02T03:26:30;6.03;;;3.72;;
54539;SDS011;40438;52.992;18.604;2023-07-02T03:28:56;6.90;;;3.53;;
54539;SDS011;40438;52.992;18.604;2023-07-02T03:31:22;3.60;;;2.88;;
54539;SDS011;40438;52.992;18.604;2023-07-02T03:33:48;4.18;;;3.10;;
54539;SDS011;40438;52.992;18.604;2023-07-02T03:36:15;8.30;;;3.17;;
54539;SDS011;40438;52.992;18.604;2023-07-02T03:38:41;2.95;;;2.65;;
54539;SDS011;40438;52.992;18.604;2023-07-02T03:41:06;6.43;;;2.65;;
54539;SDS011;40438;52.992;18.604;2023-07-02T03:43:32;4.15;;;2.83;;
54539;SDS011;40438;52.992;18.604;2023-07-02T03:45:58;4.15;;;2.95;;
54539;SDS011;40438;52.992;18.604;2023-07-02T03:48:24;4.55;;;2.47;;
54539;SDS011;40438;52.992;18.604;2023-07-02T03:50:49;5.65;;;2.80;;
54539;SDS011;40438;52.992;18.604;2023-07-02T03:53:17;5.47;;;2.72;;
54539;SDS011;40438;52.992;18.604;2023-07-02T03:55:42;3.42;;;2.83;;
54539;SDS011;40438;52.992;18.604;2023-07-02T03:58:08;9.70;;;2.72;;
54539;SDS011;40438;52.992;18.604;2023-07-02T04:00:34;4.95;;;2.17;;
54539;SDS011;40438;52.992;18.604;2023-07-02T04:03:00;3.30;;;2.25;;
54539;SDS011;40438;52.992;18.604;2023-07-02T04:05:25;3.88;;;2.38;;
54539;SDS011;40438;52.992;18.604;2023-07-02T04:07:51;6.00;;;2.33;;
54539;SDS011;40438;52.992;18.604;2023-07-02T04:10:18;4.75;;;2.55;;
54539;SDS011;40438;52.992;18.604;2023-07-02T04:12:44;4.50;;;2.13;;
54539;SDS011;40438;52.992;18.604;2023-07-02T04:15:10;2.90;;;2.55;;
54539;SDS011;40438;52.992;18.604;2023-07-02T04:17:36;6.22;;;2.40;;
54539;SDS011;40438;52.992;18.604;2023-07-02T04:20:02;5.47;;;2.20;;
54539;SDS011;40438;52.992;18.604;2023-07-02T04:22:28;3.13;;;2.20;;
54539;SDS011;40438;52.992;18.604;2023-07-02T04:24:54;9.55;;;2.33;;
54539;SDS011;40438;52.992;18.604;2023-07-02T04:27:21;3.70;;;2.30;;
54539;SDS011;40438;52.992;18.604;2023-07-02T04:29:47;4.10;;;2.60;;
54539;SDS011;40438;52.992;18.604;2023-07-02T04:32:12;2.95;;;2.17;;
54539;SDS011;40438;52.992;18.604;2023-07-02T04:34:38;3.40;;;2.28;;
54539;SDS011;40438;52.992;18.604;2023-07-02T04:37:04;5.55;;;2.40;;
54539;SDS011;40438;52.992;18.604;2023-07-02T04:39:30;4.95;;;2.55;;
54539;SDS011;40438;52.992;18.604;2023-07-02T04:41:56;7.50;;;2.85;;
54539;SDS011;40438;52.992;18.604;2023-07-02T04:44:23;7.05;;;2.80;;
54539;SDS011;40438;52.992;18.604;2023-07-02T04:46:49;6.32;;;3.35;;
54539;SDS011;40438;52.992;18.604;2023-07-02T04:49:15;6.97;;;3.70;;
54539;SDS011;40438;52.992;18.604;2023-07-02T04:51:41;6.85;;;3.75;;
54539;SDS011;40438;52.992;18.604;2023-07-02T04:54:06;5.40;;;3.97;;
54539;SDS011;40438;52.992;18.604;2023-07-02T04:56:32;8.27;;;4.53;;
54539;SDS011;40438;52.992;18.604;2023-07-02T04:58:58;5.53;;;3.65;;
54539;SDS011;40438;52.992;18.604;2023-07-02T05:01:25;4.80;;;3.70;;
54539;SDS011;40438;52.992;18.604;2023-07-02T05:03:52;8.73;;;3.85;;
54539;SDS011;40438;52.992;18.604;2023-07-02T05:06:18;6.28;;;3.70;;
54539;SDS011;40438;52.992;18.604;2023-07-02T05:08:44;10.13;;;4.20;;
54539;SDS011;40438;52.992;18.604;2023-07-02T05:11:10;7.40;;;4.03;;
54539;SDS011;40438;52.992;18.604;2023-07-02T05:13:36;7.47;;;4.10;;
54539;SDS011;40438;52.992;18.604;2023-07-02T05:16:01;3.85;;;2.92;;
54539;SDS011;40438;52.992;18.604;2023-07-02T05:18:29;5.07;;;3.22;;
54539;SDS011;40438;52.992;18.604;2023-07-02T05:20:54;3.78;;;2.92;;
54539;SDS011;40438;52.992;18.604;2023-07-02T05:23:20;4.15;;;3.20;;
54539;SDS011;40438;52.992;18.604;2023-07-02T05:25:46;5.05;;;3.00;;
54539;SDS011;40438;52.992;18.604;2023-07-02T05:28:12;5.60;;;2.78;;
54539;SDS011;40438;52.992;18.604;2023-07-02T05:30:38;3.45;;;2.75;;
54539;SDS011;40438;52.992;18.604;2023-07-02T05:33:03;6.72;;;2.20;;
54539;SDS011;40438;52.992;18.604;2023-07-02T05:35:31;2.60;;;2.30;;
54539;SDS011;40438;52.992;18.604;2023-07-02T05:37:56;3.75;;;2.17;;
54539;SDS011;40438;52.992;18.604;2023-07-02T05:40:22;3.10;;;2.08;;
54539;SDS011;40438;52.992;18.604;2023-07-02T05:42:48;2.42;;;2.20;;
54539;SDS011;40438;52.992;18.604;2023-07-02T05:45:14;2.50;;;2.17;;
54539;SDS011;40438;52.992;18.604;2023-07-02T05:47:39;5.32;;;2.42;;
54539;SDS011;40438;52.992;18.604;2023-07-02T05:50:06;2.00;;;1.90;;
54539;SDS011;40438;52.992;18.604;2023-07-02T05:52:34;2.60;;;2.08;;
54539;SDS011;40438;52.992;18.604;2023-07-02T05:55:00;2.25;;;2.05;;
54539;SDS011;40438;52.992;18.604;2023-07-02T05:57:26;2.08;;;1.80;;
54539;SDS011;40438;52.992;18.604;2023-07-02T05:59:52;2.88;;;1.90;;
54539;SDS011;40438;52.992;18.604;2023-07-02T06:02:17;2.33;;;1.88;;
54539;SDS011;40438;52.992;18.604;2023-07-02T06:04:43;2.92;;;1.80;;
54539;SDS011;40438;52.992;18.604;2023-07-02T06:07:09;3.92;;;2.15;;
54539;SDS011;40438;52.992;18.604;2023-07-02T06:09:36;4.45;;;2.30;;
54539;SDS011;40438;52.992;18.604;2023-07-02T06:12:02;2.20;;;2.00;;
54539;SDS011;40438;52.992;18.604;2023-07-02T06:14:28;2.00;;;1.60;;
54539;SDS011;40438;52.992;18.604;2023-07-02T06:16:54;2.75;;;1.88;;
54539;SDS011;40438;52.992;18.604;2023-07-02T06:19:20;8.63;;;2.40;;
54539;SDS011;40438;52.992;18.604;2023-07-02T06:21:45;5.50;;;1.90;;
54539;SDS011;40438;52.992;18.604;2023-07-02T06:24:11;3.47;;;2.40;;
54539;SDS011;40438;52.992;18.604;2023-07-02T06:26:38;2.72;;;2.03;;
54539;SDS011;40438;52.992;18.604;2023-07-02T06:29:04;2.83;;;1.73;;
54539;SDS011;40438;52.992;18.604;2023-07-02T06:31:30;4.47;;;1.67;;
54539;SDS011;40438;52.992;18.604;2023-07-02T06:33:56;3.90;;;2.20;;
54539;SDS011;40438;52.992;18.604;2023-07-02T06:36:21;2.72;;;2.25;;
54539;SDS011;40438;52.992;18.604;2023-07-02T06:38:47;4.20;;;1.70;;
54539;SDS011;40438;52.992;18.604;2023-07-02T06:41:13;1.85;;;1.60;;
54539;SDS011;40438;52.992;18.604;2023-07-02T06:43:42;2.85;;;1.60;;
54539;SDS011;40438;52.992;18.604;2023-07-02T06:46:09;2.63;;;1.40;;
54539;SDS011;40438;52.992;18.604;2023-07-02T06:48:35;1.65;;;1.55;;
54539;SDS011;40438;52.992;18.604;2023-07-02T06:51:01;1.92;;;1.40;;
54539;SDS011;40438;52.992;18.604;2023-07-02T06:53:26;1.92;;;1.70;;
54539;SDS011;40438;52.992;18.604;2023-07-02T06:55:52;1.77;;;1.60;;
54539;SDS011;40438;52.992;18.604;2023-07-02T06:58:18;1.60;;;1.50;;
54539;SDS011;40438;52.992;18.604;2023-07-02T07:00:45;1.52;;;1.42;;
54539;SDS011;40438;52.992;18.604;2023-07-02T07:03:11;2.33;;;1.75;;
54539;SDS011;40438;52.992;18.604;2023-07-02T07:05:37;1.80;;;1.40;;
54539;SDS011;40438;52.992;18.604;2023-07-02T07:08:03;1.63;;;1.27;;
54539;SDS011;40438;52.992;18.604;2023-07-02T07:10:29;1.30;;;1.20;;
54539;SDS011;40438;52.992;18.604;2023-07-02T07:12:54;1.42;;;1.20;;
54539;SDS011;40438;52.992;18.604;2023-07-02T07:15:20;1.63;;;1.50;;
54539;SDS011;40438;52.992;18.604;2023-07-02T07:17:47;1.20;;;1.02;;
54539;SDS011;40438;52.992;18.604;2023-07-02T07:20:13;1.33;;;1.17;;
54539;SDS011;40438;52.992;18.604;2023-07-02T07:22:39;2.17;;;1.40;;
54539;SDS011;40438;52.992;18.604;2023-07-02T07:25:05;1.75;;;1.50;;
54539;SDS011;40438;52.992;18.604;2023-07-02T07:27:31;5.30;;;1.33;;
54539;SDS011;40438;52.992;18.604;2023-07-02T07:29:57;2.47;;;1.45;;
54539;SDS011;40438;52.992;18.604;2023-07-02T07:32:22;3.17;;;1.73;;
54539;SDS011;40438;52.992;18.604;2023-07-02T07:34:49;3.10;;;1.60;;
54539;SDS011;40438;52.992;18.604;2023-07-02T07:37:15;2.15;;;1.52;;
54539;SDS011;40438;52.992;18.604;2023-07-02T07:39:41;1.70;;;1.40;;
54539;SDS011;40438;52.992;18.604;2023-07-02T07:42:07;1.63;;;1.52;;
54539;SDS011;40438;52.992;18.604;2023-07-02T07:44:33;2.63;;;1.48;;
54539;SDS011;40438;52.992;18.604;2023-07-02T07:46:58;4.18;;;1.70;;
54539;SDS011;40438;52.992;18.604;2023-07-02T07:49:24;1.92;;;1.60;;
54539;SDS011;40438;52.992;18.604;2023-07-02T07:51:51;1.80;;;1.65;;
54539;SDS011;40438;52.992;18.604;2023-07-02T07:54:17;2.35;;;1.80;;
54539;SDS011;40438;52.992;18.604;2023-07-02T07:56:43;2.10;;;1.70;;
54539;SDS011;40438;52.992;18.604;2023-07-02T07:59:09;2.85;;;1.75;;
54539;SDS011;40438;52.992;18.604;2023-07-02T08:01:34;1.63;;;1.52;;
54539;SDS011;40438;52.992;18.604;2023-07-02T08:04:00;2.70;;;2.00;;
54539;SDS011;40438;52.992;18.604;2023-07-02T08:06:26;2.15;;;1.65;;
54539;SDS011;40438;52.992;18.604;2023-07-02T08:08:53;2.20;;;1.55;;
54539;SDS011;40438;52.992;18.604;2023-07-02T08:11:19;3.00;;;1.80;;
54539;SDS011;40438;52.992;18.604;2023-07-02T08:13:45;2.78;;;1.70;;
54539;SDS011;40438;52.992;18.604;2023-07-02T08:16:10;3.35;;;1.83;;
54539;SDS011;40438;52.992;18.604;2023-07-02T08:18:36;2.53;;;1.70;;
54539;SDS011;40438;52.992;18.604;2023-07-02T08:21:02;2.15;;;1.70;;
54539;SDS011;40438;52.992;18.604;2023-07-02T08:23:28;2.10;;;1.90;;
54539;SDS011;40438;52.992;18.604;2023-07-02T08:25:55;3.13;;;1.80;;
54539;SDS011;40438;52.992;18.604;2023-07-02T08:28:21;4.32;;;1.92;;
54539;SDS011;40438;52.992;18.604;2023-07-02T08:30:46;1.75;;;1.52;;
54539;SDS011;40438;52.992;18.604;2023-07-02T08:33:12;1.73;;;1.55;;
54539;SDS011;40438;52.992;18.604;2023-07-02T08:35:38;2.25;;;1.60;;
54539;SDS011;40438;52.992;18.604;2023-07-02T08:38:04;2.97;;;1.58;;
54539;SDS011;40438;52.992;18.604;2023-07-02T08:40:29;3.85;;;1.60;;
54539;SDS011;40438;52.992;18.604;2023-07-02T08:42:57;4.32;;;1.20;;
54539;SDS011;40438;52.992;18.604;2023-07-02T08:45:24;1.50;;;1.33;;
54539;SDS011;40438;52.992;18.604;2023-07-02T08:47:49;2.13;;;1.30;;
54539;SDS011;40438;52.992;18.604;2023-07-02T08:50:15;4.20;;;1.35;;
54539;SDS011;40438;52.992;18.604;2023-07-02T08:52:41;4.97;;;1.42;;
54539;SDS011;40438;52.992;18.604;2023-07-02T08:55:08;1.50;;;1.35;;
54539;SDS011;40438;52.992;18.604;2023-07-02T08:57:34;3.72;;;1.45;;
54539;SDS011;40438;52.992;18.604;2023-07-02T09:00:05;3.22;;;1.33;;
54539;SDS011;40438;52.992;18.604;2023-07-02T09:02:33;3.92;;;1.33;;
54539;SDS011;40438;52.992;18.604;2023-07-02T09:05:00;2.33;;;1.20;;
54539;SDS011;40438;52.992;18.604;2023-07-02T09:07:26;5.78;;;1.20;;
54539;SDS011;40438;52.992;18.604;2023-07-02T09:09:52;1.75;;;1.10;;
54539;SDS011;40438;52.992;18.604;2023-07-02T09:12:24;1.25;;;1.00;;
54539;SDS011;40438;52.992;18.604;2023-07-02T09:14:54;2.63;;;1.30;;
54539;SDS011;40438;52.992;18.604;2023-07-02T09:17:26;2.88;;;1.20;;
54539;SDS011;40438;52.992;18.604;2023-07-02T09:19:52;2.93;;;1.17;;
54539;SDS011;40438;52.992;18.604;2023-07-02T09:22:18;1.95;;;1.30;;
54539;SDS011;40438;52.992;18.604;2023-07-02T09:24:50;3.22;;;1.10;;
54539;SDS011;40438;52.992;18.604;2023-07-02T09:29:42;2.47;;;1.40;;
54539;SDS011;40438;52.992;18.604;2023-07-02T09:32:08;3.10;;;1.40;;
54539;SDS011;40438;52.992;18.604;2023-07-02T09:34:35;2.08;;;1.27;;
54539;SDS011;40438;52.992;18.604;2023-07-02T09:37:02;1.98;;;1.50;;
54539;SDS011;40438;52.992;18.604;2023-07-02T09:39:29;2.50;;;1.08;;
54539;SDS011;40438;52.992;18.604;2023-07-02T09:41:57;4.03;;;1.30;;
54539;SDS011;40438;52.992;18.604;2023-07-02T09:44:27;1.13;;;1.02;;
54539;SDS011;40438;52.992;18.604;2023-07-02T09:46:56;3.35;;;1.30;;
54539;SDS011;40438;52.992;18.604;2023-07-02T09:49:25;2.30;;;1.58;;
54539;SDS011;40438;52.992;18.604;2023-07-02T09:51:53;2.47;;;1.40;;
54539;SDS011;40438;52.992;18.604;2023-07-02T09:54:19;3.50;;;1.55;;
54539;SDS011;40438;52.992;18.604;2023-07-02T09:56:45;3.45;;;1.20;;
54539;SDS011;40438;52.992;18.604;2023-07-02T09:59:11;3.67;;;1.35;;
54539;SDS011;40438;52.992;18.604;2023-07-02T10:01:37;2.00;;;1.30;;
54539;SDS011;40438;52.992;18.604;2023-07-02T10:04:11;3.20;;;1.38;;
54539;SDS011;40438;52.992;18.604;2023-07-02T10:06:44;2.05;;;1.55;;
54539;SDS011;40438;52.992;18.604;2023-07-02T10:09:11;2.80;;;1.80;;
54539;SDS011;40438;52.992;18.604;2023-07-02T10:11:37;3.30;;;1.63;;
54539;SDS011;40438;52.992;18.604;2023-07-02T10:14:03;3.17;;;1.75;;
54539;SDS011;40438;52.992;18.604;2023-07-02T10:16:29;2.45;;;1.17;;
54539;SDS011;40438;52.992;18.604;2023-07-02T10:18:55;5.45;;;1.52;;
54539;SDS011;40438;52.992;18.604;2023-07-02T10:21:20;1.85;;;1.45;;
54539;SDS011;40438;52.992;18.604;2023-07-02T10:23:46;3.00;;;1.05;;
54539;SDS011;40438;52.992;18.604;2023-07-02T10:26:17;2.80;;;1.85;;
54539;SDS011;40438;52.992;18.604;2023-07-02T10:28:55;2.22;;;1.42;;
54539;SDS011;40438;52.992;18.604;2023-07-02T10:31:21;2.40;;;1.30;;
54539;SDS011;40438;52.992;18.604;2023-07-02T10:33:47;2.20;;;1.42;;
54539;SDS011;40438;52.992;18.604;2023-07-02T10:36:19;4.82;;;1.40;;
54539;SDS011;40438;52.992;18.604;2023-07-02T10:41:11;2.17;;;1.50;;
54539;SDS011;40438;52.992;18.604;2023-07-02T10:43:39;1.92;;;1.73;;
54539;SDS011;40438;52.992;18.604;2023-07-02T10:46:04;2.75;;;1.30;;
54539;SDS011;40438;52.992;18.604;2023-07-02T10:48:30;2.88;;;1.60;;
54539;SDS011;40438;52.992;18.604;2023-07-02T10:50:56;2.22;;;1.40;;
54539;SDS011;40438;52.992;18.604;2023-07-02T10:53:23;3.35;;;1.50;;
54539;SDS011;40438;52.992;18.604;2023-07-02T10:55:53;4.18;;;1.80;;
54539;SDS011;40438;52.992;18.604;2023-07-02T10:58:19;4.65;;;1.58;;
54539;SDS011;40438;52.992;18.604;2023-07-02T11:00:47;2.10;;;1.50;;
54539;SDS011;40438;52.992;18.604;2023-07-02T11:03:17;4.65;;;1.40;;
54539;SDS011;40438;52.992;18.604;2023-07-02T11:05:43;3.85;;;1.55;;
54539;SDS011;40438;52.992;18.604;2023-07-02T11:08:09;4.50;;;1.77;;
54539;SDS011;40438;52.992;18.604;2023-07-02T11:10:35;3.58;;;1.80;;
54539;SDS011;40438;52.992;18.604;2023-07-02T11:13:09;2.35;;;1.58;;
54539;SDS011;40438;52.992;18.604;2023-07-02T11:15:36;4.97;;;1.60;;
54539;SDS011;40438;52.992;18.604;2023-07-02T11:18:09;2.15;;;1.70;;
54539;SDS011;40438;52.992;18.604;2023-07-02T11:20:35;3.53;;;1.50;;
54539;SDS011;40438;52.992;18.604;2023-07-02T11:23:01;1.45;;;1.30;;
54539;SDS011;40438;52.992;18.604;2023-07-02T11:25:27;4.03;;;2.60;;
54539;SDS011;40438;52.992;18.604;2023-07-02T11:28:01;3.58;;;1.60;;
54539;SDS011;40438;52.992;18.604;2023-07-02T11:30:28;1.83;;;1.40;;
54539;SDS011;40438;52.992;18.604;2023-07-02T11:32:54;2.50;;;1.70;;
54539;SDS011;40438;52.992;18.604;2023-07-02T11:35:22;3.38;;;1.70;;
54539;SDS011;40438;52.992;18.604;2023-07-02T11:37:58;3.42;;;1.40;;
54539;SDS011;40438;52.992;18.604;2023-07-02T11:40:24;6.30;;;1.77;;
54539;SDS011;40438;52.992;18.604;2023-07-02T11:42:50;2.58;;;1.35;;
54539;SDS011;40438;52.992;18.604;2023-07-02T11:45:16;3.78;;;1.73;;
54539;SDS011;40438;52.992;18.604;2023-07-02T11:47:42;9.52;;;2.03;;
54539;SDS011;40438;52.992;18.604;2023-07-02T11:50:08;3.00;;;1.60;;
54539;SDS011;40438;52.992;18.604;2023-07-02T11:52:35;4.22;;;1.60;;
54539;SDS011;40438;52.992;18.604;2023-07-02T11:55:01;2.78;;;1.58;;
54539;SDS011;40438;52.992;18.604;2023-07-02T11:57:27;5.47;;;1.70;;
54539;SDS011;40438;52.992;18.604;2023-07-02T11:59:53;2.33;;;1.80;;
54539;SDS011;40438;52.992;18.604;2023-07-02T12:02:18;6.57;;;2.33;;
54539;SDS011;40438;52.992;18.604;2023-07-02T12:04:44;3.28;;;1.63;;
54539;SDS011;40438;52.992;18.604;2023-07-02T12:07:10;2.83;;;1.80;;
54539;SDS011;40438;52.992;18.604;2023-07-02T12:09:37;3.33;;;1.90;;
54539;SDS011;40438;52.992;18.604;2023-07-02T12:12:03;2.33;;;1.73;;
54539;SDS011;40438;52.992;18.604;2023-07-02T12:14:30;5.15;;;1.88;;
54539;SDS011;40438;52.992;18.604;2023-07-02T12:16:56;5.25;;;2.13;;
54539;SDS011;40438;52.992;18.604;2023-07-02T12:19:21;3.72;;;1.67;;
54539;SDS011;40438;52.992;18.604;2023-07-02T12:21:47;2.30;;;1.55;;
54539;SDS011;40438;52.992;18.604;2023-07-02T12:24:13;4.15;;;1.88;;
54539;SDS011;40438;52.992;18.604;2023-07-02T12:26:40;6.75;;;1.85;;
54539;SDS011;40438;52.992;18.604;2023-07-02T12:29:07;2.80;;;1.70;;
54539;SDS011;40438;52.992;18.604;2023-07-02T12:31:33;3.78;;;1.52;;
54539;SDS011;40438;52.992;18.604;2023-07-02T12:33:59;3.15;;;1.52;;
54539;SDS011;40438;52.992;18.604;2023-07-02T12:36:25;3.28;;;2.03;;
54539;SDS011;40438;52.992;18.604;2023-07-02T12:38:50;6.82;;;1.80;;
54539;SDS011;40438;52.992;18.604;2023-07-02T12:41:16;2.63;;;1.80;;
54539;SDS011;40438;52.992;18.604;2023-07-02T12:43:43;3.28;;;1.88;;
54539;SDS011;40438;52.992;18.604;2023-07-02T12:46:09;2.47;;;1.73;;
54539;SDS011;40438;52.992;18.604;2023-07-02T12:48:35;2.63;;;1.70;;
54539;SDS011;40438;52.992;18.604;2023-07-02T12:51:01;2.30;;;1.55;;
54539;SDS011;40438;52.992;18.604;2023-07-02T12:53:27;4.90;;;1.95;;
54539;SDS011;40438;52.992;18.604;2023-07-02T12:55:53;1.92;;;1.60;;
54539;SDS011;40438;52.992;18.604;2023-07-02T12:58:19;4.53;;;1.90;;
54539;SDS011;40438;52.992;18.604;2023-07-02T13:00:46;3.17;;;1.63;;
54539;SDS011;40438;52.992;18.604;2023-07-02T13:03:13;3.35;;;1.67;;
54539;SDS011;40438;52.992;18.604;2023-07-02T13:05:39;2.22;;;1.70;;
54539;SDS011;40438;52.992;18.604;2023-07-02T13:08:05;6.53;;;1.77;;
54539;SDS011;40438;52.992;18.604;2023-07-02T13:10:32;4.55;;;2.10;;
54539;SDS011;40438;52.992;18.604;2023-07-02T13:12:58;2.33;;;1.70;;
54539;SDS011;40438;52.992;18.604;2023-07-02T13:15:24;2.78;;;1.80;;
54539;SDS011;40438;52.992;18.604;2023-07-02T13:17:51;4.75;;;1.92;;
54539;SDS011;40438;52.992;18.604;2023-07-02T13:20:17;3.88;;;1.90;;
54539;SDS011;40438;52.992;18.604;2023-07-02T13:22:43;4.03;;;1.70;;
54539;SDS011;40438;52.992;18.604;2023-07-02T13:25:09;3.25;;;1.88;;
54539;SDS011;40438;52.992;18.604;2023-07-02T13:27:34;2.08;;;1.63;;
54539;SDS011;40438;52.992;18.604;2023-07-02T13:30:00;2.88;;;1.55;;
54539;SDS011;40438;52.992;18.604;2023-07-02T13:32:26;5.93;;;1.90;;
54539;SDS011;40438;52.992;18.604;2023-07-02T13:34:54;2.35;;;1.65;;
54539;SDS011;40438;52.992;18.604;2023-07-02T13:37:20;2.67;;;1.67;;
54539;SDS011;40438;52.992;18.604;2023-07-02T13:39:45;4.32;;;1.65;;
54539;SDS011;40438;52.992;18.604;2023-07-02T13:42:12;2.65;;;1.73;;
54539;SDS011;40438;52.992;18.604;2023-07-02T13:44:37;4.85;;;2.13;;
54539;SDS011;40438;52.992;18.604;2023-07-02T13:47:03;3.83;;;1.98;;
54539;SDS011;40438;52.992;18.604;2023-07-02T13:49:30;4.13;;;1.63;;
54539;SDS011;40438;52.992;18.604;2023-07-02T13:51:57;5.90;;;1.88;;
54539;SDS011;40438;52.992;18.604;2023-07-02T13:54:23;3.20;;;1.92;;
54539;SDS011;40438;52.992;18.604;2023-07-02T13:56:48;5.32;;;1.77;;
54539;SDS011;40438;52.992;18.604;2023-07-02T13:59:16;2.95;;;1.90;;
54539;SDS011;40438;52.992;18.604;2023-07-02T14:01:43;4.90;;;1.80;;
54539;SDS011;40438;52.992;18.604;2023-07-02T14:04:09;5.47;;;1.88;;
54539;SDS011;40438;52.992;18.604;2023-07-02T14:06:36;3.25;;;1.85;;
54539;SDS011;40438;52.992;18.604;2023-07-02T14:09:02;2.35;;;1.80;;
54539;SDS011;40438;52.992;18.604;2023-07-02T14:11:29;3.05;;;1.83;;
54539;SDS011;40438;52.992;18.604;2023-07-02T14:13:55;2.70;;;1.67;;
54539;SDS011;40438;52.992;18.604;2023-07-02T14:16:22;5.75;;;1.85;;
54539;SDS011;40438;52.992;18.604;2023-07-02T14:18:48;2.72;;;2.10;;
54539;SDS011;40438;52.992;18.604;2023-07-02T14:21:14;3.75;;;2.20;;
54539;SDS011;40438;52.992;18.604;2023-07-02T14:23:40;2.53;;;1.70;;
54539;SDS011;40438;52.992;18.604;2023-07-02T14:26:06;3.88;;;2.50;;
54539;SDS011;40438;52.992;18.604;2023-07-02T14:28:32;6.38;;;2.05;;
54539;SDS011;40438;52.992;18.604;2023-07-02T14:30:58;4.25;;;2.03;;
54539;SDS011;40438;52.992;18.604;2023-07-02T14:33:26;2.60;;;1.73;;